Decoded Metar for KTGI ( in ) (IATA:) | Meteo·Mobile Aviation Weather
aviador You're here:

KTGI Decoded Metar

in
Report Time2018-12-14 07:04:00
UTC Time2018-12-14 07:15:35
Flight Rules vfr VFR
Wind090° at 04 kt
W.Decomp.*RWY 02: 1.4 kt HW 3.8 kt RCW
W.Rank090° ranks 23
Current wind is below 090° avg. (7.0)
Visibility9999 m
Phenomena:N/A
Clouds:N/A
Expected CloudBase > 400 ft AGL from Temp-Dew spread
CeilingNone
Temp06°C
Dew Point05°C (93% RH)
AAT3.4°C
QNH1029 hPa
Raw Report
KTGI 140704Z AUTO 09004KT 10SM CLR 06/05 A3038 RMK AO1=

Extra information for KTGI:More info

Social comments